首页
METAR-TAF:

METAR-TAF

机场 :

伯尔尼-贝尔普机场

伯尔尼, 瑞士

纬度: 46-55N, 经度: 007-30E, 海拔: 505米

当前天气观测

该预报发布于12分钟前的01:20 UTC
风速4节,风向
温度 7°C
湿度 100%
气压 1017 hPa
能见度10公里或以上
多云层高于12000英尺
多云层高于14000英尺

METAR: LSZB 170120Z AUTO 18004KT 9999 BKN120 BKN140 07/07 Q1017

时间: 03:32 (01:32 UTC)

预报

该预报发布于11小时和7分钟前的14:25 UTC
预报有效从16日的 15点(UTC)到 16日的 24点(UTC)
风速3节,风向多变
能见度10公里或以上
1500米以下无云,无积雨云
短暂存在
从 16日的 22点(UTC)到 16日的 24点(UTC)
能见度10公里或以上
散云层高于12000英尺

TAF: LSZB 161425Z 1615/1624 VRB03KT CAVOK TEMPO 1622/1624 9999 SCT120

超过4000个机场的气象观测和天气预报(METAR&TAF报告)。

可查询的气象台以黄色和红色小点在地图上表示。

将鼠标移到小点上方,可查看气象台名称。

然后点击查看天气观测和预报。

如需切换地图:点击带黑十字的绿色按钮放大地图;点击带横线的绿色按钮缩小地图;或者点击绿色箭头查看邻近地区的地图。


METAR-TAF: